עמוד ראשי
METAR-TAF:

METAR-TAF

שדות תעופה :

אולגין, קובה

קו רוחב: 20-47N, קו אורך: 076-19W, גובה: 106מטר

תצפית מזג אוויר נוכחית

הדו"ח נערך לפני 1 שעות ו 3דקות, בשעה 00:50 UTC
רוח 5קשר מכיוון דרום-מזרח
טמפרטורת 28 צלסיוס
לחות 66%
לחץ 1014 hPa
ראות: 9000מטר
מעט עננים בגובה 3000רגל
עננים בינוניים בגובה 25000רגל

METAR: MUHG 130050Z 14005KT 9000 FEW030 BKN250 28/21 Q1014

זמן: 21:53 (01:53 UTC)

תחזית

הדו"ח נערך לפני 2 שעות ו 53דקות, בשעה 23:00 UTC
תחזית בתוקף מ 13 ב 00 UTC עד 13 ב 24 UTC
רוח 4קשר עם כיוונים משתנים
ראות: 9000מטר
מעט עננים בגובה 2000רגל
עננים בינוניים בגובה 15000רגל
זמנית מ -
13 ב 10 UTC עד 13 ב 12 UTC
ראות: 5000מטר
אד
יעשה מ
13 ב 17 UTC עד 13 ב 19 UTC
רוח 8קשר מכיוון דרום/דרום-מזרח
זמנית מ -
13 ב 20 UTC עד 13 ב 23 UTC
עננים פזורים בגובה 2000רגל , קומולוס מיגדלי.

TAF: MUHG 122300Z 1300/1324 VRB04KT 9000 FEW020 BKN150 TEMPO 1310/1312 5000 BR BECMG 1317/1319 16008KT TEMPO 1320/1323 SCT020TCU

תצפיות ותחזיות מזג אוויר לגבי יותר מ- 4,000 שדות תעופה ברחבי העולם. דוחות METAR ו- TAF.

התחנות הזמינות מסומנות בנקודות צהובות ואדומות על גבי המפה.

העבר את העכבר לנקודה הצבעונית על מנת לראות את שם התחנה.

לאחר מכן, לחץ כדי לראות את תוכן ואת תחזיות מזג האוויר.

כדי לשנות את המפה: לחץ על הכפתורים הירוקים עם הפלוס השחור כדי להתקרב; על הכפתור הירוק עם המקף כדי להתרחק; או בחיצים הירוקים למפות סמוכות.


METAR-TAF: